Time;durP1;ratioP1;P1;durP2;ratioP2;P2;SDS_P1;SDS_P2;PMS_P1;PMS_P2;Temp;Humidity;BMP_temperature;BMP_pressure;BME280_temperature;BME280_humidity;BME280_pressure;Samples;Min_cycle;Max_cycle;Signal;HPM_P1;HPM_P2
2022/10/01 00:02:59;;;;;;;1.40;1.10;;;20.70;56.80;;;;;;6291690;28;20020;-70
2022/10/01 00:06:03;;;;;;;2.10;1.40;;;20.70;56.80;;;;;;6293512;28;20032;-70
2022/10/01 00:09:03;;;;;;;1.70;1.30;;;20.70;56.80;;;;;;6293798;28;20493;-70
2022/10/01 00:12:04;;;;;;;1.58;1.38;;;20.70;56.80;;;;;;6293257;28;20027;-70
2022/10/01 00:15:09;;;;;;;1.63;1.30;;;20.70;56.80;;;;;;6293558;28;20028;-70
2022/10/01 00:18:09;;;;;;;2.10;1.30;;;20.70;56.80;;;;;;6293227;28;20013;-70
2022/10/01 00:21:31;;;;;;;1.48;1.23;;;20.70;56.80;;;;;;6293598;28;20039;-70
2022/10/01 00:24:32;;;;;;;1.50;1.20;;;20.70;56.80;;;;;;6292564;28;20068;-70
2022/10/01 00:27:34;;;;;;;1.40;1.08;;;20.70;56.80;;;;;;6293088;28;20032;-70
2022/10/01 00:30:35;;;;;;;6.30;1.35;;;20.70;56.90;;;;;;6293110;28;20500;-70
2022/10/01 00:33:37;;;;;;;2.25;1.50;;;20.70;56.80;;;;;;6291373;28;20051;-69
2022/10/01 00:36:38;;;;;;;1.40;1.20;;;20.70;56.80;;;;;;6292875;28;20538;-70
2022/10/01 00:39:39;;;;;;;1.45;1.00;;;20.70;56.80;;;;;;6292511;28;20020;-69
2022/10/01 00:42:40;;;;;;;1.55;1.20;;;20.70;56.80;;;;;;6292692;28;20053;-70
2022/10/01 00:45:41;;;;;;;1.35;1.10;;;20.70;56.80;;;;;;6279324;28;20476;-70
2022/10/01 00:48:49;;;;;;;1.88;1.30;;;20.70;56.80;;;;;;6271059;28;20047;-70
2022/10/01 00:51:54;;;;;;;1.80;1.20;;;20.70;56.90;;;;;;6292758;28;20451;-69
2022/10/01 00:55:18;;;;;;;1.88;1.40;;;20.70;56.80;;;;;;6290979;28;20033;-70
2022/10/01 00:58:20;;;;;;;1.88;1.50;;;20.70;56.80;;;;;;6292719;28;20058;-69
2022/10/01 01:01:23;;;;;;;2.95;1.45;;;20.70;56.80;;;;;;6292369;28;20025;-70
2022/10/01 01:04:24;;;;;;;1.60;1.30;;;20.60;56.80;;;;;;6292571;28;20395;-70
2022/10/01 01:07:26;;;;;;;1.67;1.20;;;20.70;56.90;;;;;;6292115;28;20025;-70
2022/10/01 01:10:41;;;;;;;1.60;1.27;;;20.70;56.80;;;;;;6290863;28;20024;-70
2022/10/01 01:14:01;;;;;;;1.58;1.25;;;20.70;56.80;;;;;;6291622;28;20016;-70
2022/10/01 01:17:09;;;;;;;1.33;1.15;;;20.70;56.80;;;;;;6274949;28;20020;-70
2022/10/01 01:20:35;;;;;;;1.33;1.08;;;20.70;56.80;;;;;;6292210;28;20020;-69
2022/10/01 01:24:20;;;;;;;1.80;1.55;;;20.70;56.80;;;;;;6292287;28;20032;-70
2022/10/01 01:27:33;;;;;;;1.37;1.07;;;20.70;56.80;;;;;;6266761;28;20025;-69
2022/10/01 01:30:39;;;;;;;1.40;1.15;;;20.70;56.90;;;;;;6279919;28;20233;-69
2022/10/01 01:33:44;;;;;;;1.10;1.00;;;20.70;56.90;;;;;;6291651;28;20021;-69
2022/10/01 01:36:53;;;;;;;1.48;1.30;;;20.70;56.90;;;;;;6291811;28;20552;-70
2022/10/01 01:39:56;;;;;;;1.73;1.20;;;20.70;56.90;;;;;;6290187;28;20042;-69
2022/10/01 01:42:58;;;;;;;1.10;1.00;;;20.70;56.90;;;;;;6291960;28;20062;-69
2022/10/01 01:46:03;;;;;;;1.05;0.90;;;20.70;56.80;;;;;;6302067;28;20664;-70
2022/10/01 01:49:05;;;;;;;1.35;1.25;;;20.70;56.80;;;;;;6316784;28;20050;-69
2022/10/01 01:52:14;;;;;;;1.58;1.30;;;20.70;56.90;;;;;;6293409;28;20056;-70
2022/10/01 01:55:15;;;;;;;1.02;0.93;;;20.60;56.80;;;;;;6290351;28;20021;-69
2022/10/01 01:58:17;;;;;;;1.30;1.20;;;20.60;56.80;;;;;;6291548;28;20494;-70
2022/10/01 02:01:38;;;;;;;1.80;1.30;;;20.60;56.80;;;;;;6291212;28;20029;-70
2022/10/01 02:04:49;;;;;;;1.40;1.20;;;20.60;56.80;;;;;;6291115;28;20025;-70
2022/10/01 02:08:28;;;;;;;1.80;1.30;;;20.70;56.90;;;;;;6291232;28;20048;-70
2022/10/01 02:11:37;;;;;;;1.55;1.30;;;20.60;56.80;;;;;;6291217;28;20025;-70
2022/10/01 02:15:06;;;;;;;1.55;1.23;;;20.60;56.90;;;;;;6289817;28;20024;-68
2022/10/01 02:18:44;;;;;;;1.52;1.00;;;20.60;56.90;;;;;;6256965;28;20367;-69
2022/10/01 02:22:02;;;;;;;1.55;1.30;;;20.60;57.00;;;;;;6280706;28;20036;-70
2022/10/01 02:25:05;;;;;;;1.35;1.10;;;20.60;57.00;;;;;;6292781;28;20055;-70
2022/10/01 02:28:10;;;;;;;1.45;1.17;;;20.60;56.90;;;;;;6295764;28;20023;-69
2022/10/01 02:31:13;;;;;;;1.85;1.35;;;20.60;56.90;;;;;;6295725;28;20032;-69
2022/10/01 02:34:16;;;;;;;1.70;1.10;;;20.60;56.90;;;;;;6294406;28;20040;-70
2022/10/01 02:37:21;;;;;;;1.50;1.13;;;20.60;57.60;;;;;;6295307;28;20107;-69
2022/10/01 02:40:25;;;;;;;1.80;1.48;;;20.60;56.90;;;;;;6294740;28;20025;-70
2022/10/01 02:43:37;;;;;;;1.60;1.20;;;20.60;56.90;;;;;;6295454;28;20037;-69
2022/10/01 02:46:53;;;;;;;2.25;1.40;;;20.60;56.90;;;;;;6286161;28;20025;-69
2022/10/01 02:49:54;;;;;;;1.70;1.30;;;20.60;57.00;;;;;;6295239;28;20544;-70
2022/10/01 02:53:11;;;;;;;1.40;1.30;;;20.60;57.00;;;;;;6295288;28;20056;-69
2022/10/01 02:57:21;;;;;;;1.42;1.15;;;20.60;57.00;;;;;;6295320;28;20016;-70
2022/10/01 02:59:33;;;;;;;1.15;1.00;;;20.60;57.00;;;;;;6295364;28;20025;-68
2022/10/01 03:02:34;;;;;;;1.50;1.17;;;20.60;57.00;;;;;;6295039;28;20016;-70
2022/10/01 03:05:35;;;;;;;1.75;1.10;;;20.60;56.90;;;;;;6295043;28;20032;-70
2022/10/01 03:08:36;;;;;;;1.55;1.15;;;20.60;57.00;;;;;;6294966;28;20122;-70
2022/10/01 03:11:37;;;;;;;1.50;1.20;;;20.60;57.00;;;;;;6295230;28;20515;-70
2022/10/01 03:14:38;;;;;;;1.70;1.40;;;20.60;57.00;;;;;;6294702;28;20029;-70
2022/10/01 03:17:38;;;;;;;1.60;1.25;;;20.60;57.00;;;;;;6294559;28;20020;-69
2022/10/01 03:20:39;;;;;;;1.33;1.15;;;20.60;57.00;;;;;;6293224;28;20086;-69
2022/10/01 03:23:40;;;;;;;1.42;1.02;;;20.60;57.00;;;;;;6294597;28;20077;-69
2022/10/01 03:26:40;;;;;;;0.88;0.88;;;20.60;56.90;;;;;;6294636;28;20060;-69
2022/10/01 03:29:41;;;;;;;1.52;1.20;;;20.60;57.00;;;;;;6293286;28;20488;-70
2022/10/01 03:32:42;;;;;;;1.95;1.17;;;20.60;57.00;;;;;;6294299;28;20096;-69
2022/10/01 03:35:42;;;;;;;1.40;1.20;;;20.60;57.00;;;;;;6294068;28;20048;-69
2022/10/01 03:38:43;;;;;;;1.45;1.20;;;20.60;57.70;;;;;;6294202;28;20389;-70
2022/10/01 03:41:44;;;;;;;1.48;1.13;;;20.60;57.00;;;;;;6293065;28;20504;-70
2022/10/01 03:44:46;;;;;;;1.63;1.25;;;20.60;57.00;;;;;;6294384;28;20084;-69
2022/10/01 03:47:53;;;;;;;1.30;1.00;;;20.60;57.00;;;;;;6294185;28;20043;-70
2022/10/01 03:50:56;;;;;;;1.17;1.08;;;20.60;57.00;;;;;;6293912;28;20469;-69
2022/10/01 03:53:57;;;;;;;1.52;1.20;;;20.60;57.00;;;;;;6293919;28;20039;-70
2022/10/01 03:56:58;;;;;;;1.83;1.20;;;20.60;57.00;;;;;;6293815;28;20546;-69
2022/10/01 03:59:59;;;;;;;1.45;1.23;;;20.60;57.00;;;;;;6294438;28;20029;-70
2022/10/01 04:03:00;;;;;;;1.15;1.00;;;20.60;57.00;;;;;;6293519;28;20103;-70
2022/10/01 04:06:00;;;;;;;2.03;1.20;;;20.60;57.00;;;;;;6293788;28;20102;-70
2022/10/01 04:09:01;;;;;;;1.48;1.15;;;20.60;57.00;;;;;;6293280;28;20481;-70
2022/10/01 04:12:03;;;;;;;1.67;1.17;;;20.60;57.00;;;;;;6293226;28;20063;-70
2022/10/01 04:15:04;;;;;;;1.30;1.00;;;20.60;57.00;;;;;;6293370;28;20074;-69
2022/10/01 04:18:05;;;;;;;1.63;1.10;;;20.60;57.00;;;;;;6293430;28;20078;-69
2022/10/01 04:21:05;;;;;;;1.40;1.00;;;20.60;57.00;;;;;;6293737;28;20017;-70
2022/10/01 04:24:06;;;;;;;1.50;1.20;;;20.60;57.00;;;;;;6291235;28;20446;-69
2022/10/01 04:27:07;;;;;;;1.48;1.17;;;20.60;57.00;;;;;;6293019;28;20028;-69
2022/10/01 04:30:09;;;;;;;0.95;0.82;;;20.60;57.00;;;;;;6293154;28;20441;-70
2022/10/01 04:33:18;;;;;;;2.45;1.10;;;20.60;57.00;;;;;;6293460;28;20033;-70
2022/10/01 04:36:20;;;;;;;1.10;0.95;;;20.60;57.00;;;;;;6292820;28;20421;-70
2022/10/01 04:39:20;;;;;;;1.17;1.08;;;20.50;56.90;;;;;;6293022;28;20043;-69
2022/10/01 04:42:21;;;;;;;1.10;0.90;;;20.50;56.90;;;;;;6291223;28;20029;-69
2022/10/01 04:45:22;;;;;;;1.95;1.13;;;20.50;56.90;;;;;;6293055;28;20020;-70
2022/10/01 04:48:23;;;;;;;1.77;1.10;;;20.50;56.90;;;;;;6292215;28;20097;-70
2022/10/01 04:51:24;;;;;;;1.33;0.98;;;20.50;56.90;;;;;;6293002;28;20028;-69
2022/10/01 04:54:26;;;;;;;1.15;0.98;;;20.60;57.00;;;;;;6290912;28;20035;-70
2022/10/01 04:57:27;;;;;;;1.17;1.08;;;20.60;57.00;;;;;;6292178;28;20024;-70
2022/10/01 05:00:37;;;;;;;1.15;1.00;;;20.50;56.80;;;;;;6292654;28;20023;-69
2022/10/01 05:03:37;;;;;;;1.45;1.23;;;20.50;57.60;;;;;;6284975;28;20537;-70
2022/10/01 05:06:40;;;;;;;1.23;1.00;;;20.50;56.90;;;;;;6292570;28;20020;-70
2022/10/01 05:09:40;;;;;;;1.33;0.93;;;20.50;57.60;;;;;;6292152;28;20024;-70
2022/10/01 05:12:42;;;;;;;1.48;1.20;;;20.50;56.90;;;;;;6291902;28;20103;-69
2022/10/01 05:15:43;;;;;;;0.77;0.70;;;20.60;57.00;;;;;;6291393;28;20025;-70
2022/10/01 05:18:44;;;;;;;1.52;1.20;;;20.50;56.90;;;;;;6292096;28;20370;-70
2022/10/01 05:21:45;;;;;;;1.23;1.00;;;20.50;56.90;;;;;;6292364;28;20104;-70
2022/10/01 05:24:46;;;;;;;1.30;1.02;;;20.50;56.90;;;;;;6291947;28;20031;-70
2022/10/01 05:27:46;;;;;;;1.10;1.00;;;20.60;57.00;;;;;;6291747;28;20044;-70
2022/10/01 05:30:47;;;;;;;1.60;1.10;;;20.50;56.90;;;;;;6290867;28;20531;-73
2022/10/01 05:33:48;;;;;;;1.13;0.93;;;20.50;56.80;;;;;;6278681;28;20500;-71
2022/10/01 05:36:49;;;;;;;1.33;0.90;;;20.50;56.80;;;;;;6275676;28;20033;-69
2022/10/01 05:39:49;;;;;;;3.25;1.20;;;20.60;56.70;;;;;;6284633;28;20023;-69
2022/10/01 05:42:50;;;;;;;1.40;1.00;;;20.60;56.80;;;;;;6312737;28;20020;-70
2022/10/01 05:45:51;;;;;;;1.75;1.10;;;20.60;56.70;;;;;;6276300;28;20048;-71
2022/10/01 05:48:51;;;;;;;2.22;1.20;;;20.60;56.50;;;;;;6268772;28;20041;-70
2022/10/01 05:51:52;;;;;;;1.75;1.05;;;20.60;56.60;;;;;;6282337;28;20033;-70
2022/10/01 05:54:53;;;;;;;1.58;1.08;;;20.60;56.70;;;;;;6287977;28;20069;-70
2022/10/01 05:57:58;;;;;;;5.03;1.27;;;20.70;56.60;;;;;;6308676;28;20512;-70
2022/10/01 06:00:59;;;;;;;3.47;1.10;;;20.70;56.60;;;;;;6288135;28;20025;-70
2022/10/01 06:04:00;;;;;;;2.95;1.08;;;20.70;56.70;;;;;;6292690;28;20021;-69
2022/10/01 06:07:01;;;;;;;1.08;0.90;;;20.70;56.80;;;;;;6295084;28;20090;-69
2022/10/01 06:10:02;;;;;;;1.40;1.20;;;20.60;56.70;;;;;;6295544;28;20028;-71
2022/10/01 06:13:06;;;;;;;1.48;1.00;;;20.60;56.80;;;;;;6293942;28;20036;-69
2022/10/01 06:16:07;;;;;;;2.63;1.10;;;20.60;56.80;;;;;;6293641;28;20028;-70
2022/10/01 06:19:08;;;;;;;1.42;1.00;;;20.60;56.80;;;;;;6293932;28;20028;-69
2022/10/01 06:22:09;;;;;;;1.58;1.10;;;20.60;56.80;;;;;;6295154;28;20046;-70
2022/10/01 06:25:14;;;;;;;2.42;1.10;;;20.60;56.80;;;;;;6295030;28;20700;-70
2022/10/01 06:28:14;;;;;;;0.93;0.80;;;20.60;56.80;;;;;;6299591;28;20035;-70
2022/10/01 06:31:19;;;;;;;2.13;1.20;;;20.60;56.60;;;;;;6292384;28;20029;-68
2022/10/01 06:34:20;;;;;;;1.65;1.23;;;20.70;56.70;;;;;;6292051;28;20013;-70
2022/10/01 06:37:21;;;;;;;1.30;1.20;;;20.60;56.70;;;;;;6295523;28;20027;-70
2022/10/01 06:40:22;;;;;;;3.35;0.90;;;20.70;56.80;;;;;;6295996;28;20021;-70
2022/10/01 06:43:24;;;;;;;2.40;1.20;;;20.60;56.70;;;;;;6295579;28;20028;-69
2022/10/01 06:46:24;;;;;;;2.10;0.90;;;20.60;56.70;;;;;;6294881;28;20052;-70
2022/10/01 06:49:25;;;;;;;3.20;0.90;;;20.60;56.70;;;;;;6294835;28;20056;-70
2022/10/01 06:55:48;;;;;;;1.80;1.27;;;20.60;56.70;;;;;;6295577;28;20401;-69
2022/10/01 06:58:49;;;;;;;3.55;1.00;;;20.60;56.70;;;;;;6295725;28;20495;-69
2022/10/01 07:01:50;;;;;;;2.45;1.15;;;20.60;56.60;;;;;;6295620;28;20042;-69
2022/10/01 07:04:50;;;;;;;1.95;1.10;;;20.60;56.60;;;;;;6294845;28;20516;-70
2022/10/01 07:07:52;;;;;;;1.42;1.15;;;20.60;56.70;;;;;;6295396;28;20040;-68
2022/10/01 07:10:58;;;;;;;1.92;1.10;;;20.60;56.70;;;;;;6294776;28;20447;-69
2022/10/01 07:14:00;;;;;;;2.45;1.20;;;20.60;56.60;;;;;;6293726;28;20036;-70
2022/10/01 07:17:00;;;;;;;1.17;1.08;;;20.60;56.70;;;;;;6294875;28;20055;-69
2022/10/01 07:20:02;;;;;;;1.95;1.10;;;20.60;56.70;;;;;;6295103;28;20415;-70
2022/10/01 07:23:03;;;;;;;2.85;1.00;;;20.60;56.70;;;;;;6294657;28;20082;-69
2022/10/01 07:26:04;;;;;;;2.72;1.27;;;20.60;56.70;;;;;;6294882;28;20025;-69
2022/10/01 07:29:05;;;;;;;1.55;1.25;;;20.60;56.70;;;;;;6294869;28;20052;-69
2022/10/01 07:32:08;;;;;;;1.05;0.95;;;20.60;56.70;;;;;;6293537;28;20078;-69
2022/10/01 07:35:09;;;;;;;2.42;1.10;;;20.60;56.70;;;;;;6294090;28;20024;-69
2022/10/01 07:38:10;;;;;;;1.58;1.23;;;20.60;56.60;;;;;;6292926;28;20074;-70
2022/10/01 07:41:10;;;;;;;1.17;1.00;;;20.60;56.60;;;;;;6292828;28;20017;-69
2022/10/01 07:44:11;;;;;;;1.63;1.08;;;20.60;56.70;;;;;;6293811;28;20525;-69
2022/10/01 07:47:12;;;;;;;1.63;1.13;;;20.60;56.70;;;;;;6284420;28;20040;-69
2022/10/01 07:50:14;;;;;;;1.50;1.10;;;20.60;56.70;;;;;;6293104;28;20025;-70
2022/10/01 07:53:16;;;;;;;1.40;1.20;;;20.60;56.70;;;;;;6294125;28;20100;-69
2022/10/01 07:56:16;;;;;;;1.40;0.90;;;20.60;56.70;;;;;;6292700;28;20136;-71
2022/10/01 07:59:18;;;;;;;0.80;0.80;;;20.60;56.70;;;;;;6294190;28;20378;-69
2022/10/01 08:02:18;;;;;;;1.30;0.95;;;20.60;56.60;;;;;;6294668;28;20079;-69
2022/10/01 08:05:23;;;;;;;1.30;1.00;;;20.60;56.60;;;;;;6293512;28;20021;-70
2022/10/01 08:08:24;;;;;;;1.73;1.15;;;20.60;56.70;;;;;;6293919;28;20135;-70
2022/10/01 08:11:24;;;;;;;0.98;0.88;;;20.60;56.70;;;;;;6293526;28;20032;-70
2022/10/01 08:14:25;;;;;;;1.13;0.95;;;20.60;56.70;;;;;;6293545;28;20173;-70
2022/10/01 08:17:26;;;;;;;1.67;1.35;;;20.60;56.70;;;;;;6292043;28;20029;-69
2022/10/01 08:20:27;;;;;;;1.05;0.73;;;20.60;56.60;;;;;;6294001;28;20025;-69
2022/10/01 08:23:29;;;;;;;1.55;1.00;;;20.60;56.60;;;;;;6292497;28;20029;-69
2022/10/01 08:26:30;;;;;;;1.42;1.10;;;20.60;56.70;;;;;;6291857;28;20044;-69
2022/10/01 08:29:32;;;;;;;1.38;0.98;;;20.60;56.70;;;;;;6293102;28;20487;-69
2022/10/01 08:32:33;;;;;;;1.55;1.08;;;20.60;56.60;;;;;;6291906;28;20449;-70
2022/10/01 08:35:37;;;;;;;1.90;1.17;;;20.60;56.60;;;;;;6293030;28;20040;-70
2022/10/01 08:38:39;;;;;;;2.55;1.00;;;20.60;56.60;;;;;;6293193;28;20481;-70
2022/10/01 08:41:53;;;;;;;1.30;1.00;;;20.60;56.60;;;;;;6291822;28;20017;-69
2022/10/01 08:45:03;;;;;;;1.08;0.98;;;20.60;56.60;;;;;;6286418;28;20014;-70
2022/10/01 08:48:08;;;;;;;1.50;0.80;;;20.60;56.60;;;;;;6285530;28;20563;-69
2022/10/01 08:51:12;;;;;;;2.03;1.02;;;20.60;56.60;;;;;;6293049;28;20082;-69
2022/10/01 08:54:27;;;;;;;0.95;0.85;;;20.60;56.60;;;;;;6292473;28;20398;-69
2022/10/01 08:57:31;;;;;;;1.38;0.98;;;20.60;56.60;;;;;;6292784;28;20119;-69
2022/10/01 09:00:35;;;;;;;1.20;0.90;;;20.60;56.50;;;;;;6292136;28;20783;-69
2022/10/01 09:03:36;;;;;;;0.95;0.90;;;20.60;56.50;;;;;;6290868;28;20079;-70
2022/10/01 09:06:37;;;;;;;1.25;0.90;;;20.60;56.60;;;;;;6291916;28;20063;-69
2022/10/01 09:10:08;;;;;;;1.02;0.93;;;20.60;56.50;;;;;;6292471;28;20052;-69
2022/10/01 09:13:33;;;;;;;1.10;0.95;;;20.60;56.50;;;;;;6281566;28;20109;-70
2022/10/01 09:16:52;;;;;;;1.48;0.88;;;20.60;56.60;;;;;;6292333;28;20021;-69
2022/10/01 09:20:08;;;;;;;1.60;0.90;;;20.60;56.50;;;;;;6283835;28;20028;-70
2022/10/01 09:23:44;;;;;;;1.20;1.00;;;20.60;56.50;;;;;;6292069;28;20093;-70
2022/10/01 09:26:49;;;;;;;1.05;0.80;;;20.60;56.50;;;;;;6291623;28;20033;-69
2022/10/01 09:30:01;;;;;;;1.55;1.00;;;20.60;56.50;;;;;;6292175;28;20021;-69
2022/10/01 09:33:13;;;;;;;0.93;0.80;;;20.60;56.50;;;;;;6289837;28;20692;-70
2022/10/01 09:36:25;;;;;;;1.83;1.00;;;20.60;56.60;;;;;;6278652;28;20083;-70
2022/10/01 09:39:50;;;;;;;1.10;0.90;;;20.60;56.40;;;;;;6285428;28;20036;-69
2022/10/01 09:42:51;;;;;;;0.90;0.80;;;20.60;56.40;;;;;;6290579;28;20017;-69
2022/10/01 09:45:52;;;;;;;1.55;0.80;;;20.60;56.40;;;;;;6290772;28;20043;-69
2022/10/01 09:49:18;;;;;;;1.92;1.05;;;20.60;56.40;;;;;;6288150;28;20055;-69
2022/10/01 09:52:31;;;;;;;1.60;1.00;;;20.60;56.40;;;;;;6288560;28;20101;-70
2022/10/01 09:55:44;;;;;;;1.20;1.00;;;20.60;56.40;;;;;;6290596;28;20027;-70
2022/10/01 09:58:51;;;;;;;1.23;0.77;;;20.60;56.40;;;;;;6290465;28;20020;-70
2022/10/01 10:01:57;;;;;;;1.02;0.80;;;20.60;56.40;;;;;;6288708;28;20029;-70
2022/10/01 10:05:04;;;;;;;1.42;0.98;;;20.60;56.40;;;;;;6288823;28;20020;-70
2022/10/01 10:08:15;;;;;;;1.20;0.93;;;20.60;56.40;;;;;;6290690;28;20067;-70
2022/10/01 10:11:22;;;;;;;3.63;0.90;;;20.60;56.30;;;;;;6290140;28;20021;-70
2022/10/01 10:14:35;;;;;;;3.30;0.68;;;20.60;56.30;;;;;;6263790;28;20341;-71
2022/10/01 10:17:42;;;;;;;1.08;0.90;;;20.60;56.50;;;;;;6289351;28;20032;-70
2022/10/01 10:20:44;;;;;;;1.58;0.80;;;20.70;56.60;;;;;;6289509;28;20012;-71
2022/10/01 10:24:01;;;;;;;1.98;0.73;;;20.80;56.20;;;;;;6289562;28;20122;-71
2022/10/01 10:27:05;;;;;;;3.65;0.90;;;21.00;56.00;;;;;;6288760;28;20039;-69
2022/10/01 10:30:16;;;;;;;1.67;0.90;;;21.10;55.80;;;;;;6289611;28;20099;-70
2022/10/01 10:33:21;;;;;;;1.27;0.80;;;21.00;55.90;;;;;;6269407;28;20044;-70
2022/10/01 10:36:25;;;;;;;;;;;21.00;56.00;;;;;;6290140;28;20021;-70
2022/10/01 10:39:32;;;;;;;1.88;1.00;;;21.10;55.80;;;;;;6290006;28;19971;-70
2022/10/01 10:42:36;;;;;;;1.30;1.08;;;21.10;55.80;;;;;;6275797;28;20025;-70
2022/10/01 10:45:38;;;;;;;1.70;1.20;;;21.10;55.80;;;;;;6275327;28;20478;-69
2022/10/01 10:48:46;;;;;;;2.10;1.40;;;21.10;55.80;;;;;;6272615;28;20513;-69
2022/10/01 10:51:52;;;;;;;1.45;1.05;;;21.10;55.80;;;;;;6292811;28;20074;-69
2022/10/01 10:54:53;;;;;;;2.38;1.50;;;21.20;56.00;;;;;;6292888;28;20493;-69
2022/10/01 10:57:54;;;;;;;1.65;1.27;;;21.20;56.30;;;;;;6294055;28;20024;-70
2022/10/01 11:00:57;;;;;;;1.42;1.10;;;21.20;56.00;;;;;;6293996;28;20489;-69
2022/10/01 11:03:59;;;;;;;4.32;1.33;;;21.20;55.90;;;;;;6291563;28;20531;-69
2022/10/01 11:07:00;;;;;;;2.13;1.30;;;21.20;56.10;;;;;;6292824;28;20052;-70
2022/10/01 11:10:21;;;;;;;2.17;1.33;;;21.20;56.00;;;;;;6292992;28;20063;-69
2022/10/01 11:13:25;;;;;;;2.05;1.23;;;21.20;55.90;;;;;;6292776;28;20029;-69
2022/10/01 11:16:49;;;;;;;1.45;1.10;;;21.20;56.20;;;;;;6292489;28;20016;-69
2022/10/01 11:20:09;;;;;;;2.35;1.30;;;21.20;56.20;;;;;;6288970;28;20075;-69
2022/10/01 11:23:32;;;;;;;2.90;1.20;;;21.10;56.20;;;;;;6293444;28;20025;-69
2022/10/01 11:27:03;;;;;;;2.60;1.30;;;21.20;56.30;;;;;;6279161;28;20224;-70
2022/10/01 11:30:19;;;;;;;2.17;1.20;;;21.20;56.10;;;;;;6276340;28;20724;-69
2022/10/01 11:33:23;;;;;;;4.22;1.17;;;21.10;56.20;;;;;;6268899;28;20059;-70
2022/10/01 11:36:54;;;;;;;5.75;1.33;;;21.20;56.20;;;;;;6287099;28;20016;-70
2022/10/01 11:40:01;;;;;;;8.38;1.10;;;21.30;56.00;;;;;;6281853;28;20024;-69
2022/10/01 11:43:20;;;;;;;1.80;1.00;;;21.30;56.20;;;;;;6291682;28;20031;-69
2022/10/01 11:46:38;;;;;;;3.30;1.20;;;21.30;56.30;;;;;;6292779;28;20029;-68
2022/10/01 11:50:15;;;;;;;1.55;0.80;;;21.20;56.20;;;;;;6292645;28;20404;-68
2022/10/01 11:53:29;;;;;;;1.27;0.85;;;21.20;56.30;;;;;;6290263;28;20417;-69
2022/10/01 12:00:06;;;;;;;1.35;1.08;;;21.30;56.10;;;;;;6292414;28;20428;-68
2022/10/01 12:03:14;;;;;;;1.48;1.05;;;21.30;56.30;;;;;;6292337;28;20354;-68
2022/10/01 12:06:17;;;;;;;1.23;0.77;;;21.20;56.30;;;;;;6291839;28;20029;-68
2022/10/01 12:09:49;;;;;;;1.27;0.95;;;21.20;56.30;;;;;;6291673;28;20098;-68
2022/10/01 12:12:55;;;;;;;2.88;1.15;;;21.20;56.30;;;;;;6291336;28;20768;-68
2022/10/01 12:16:19;;;;;;;2.45;0.88;;;21.20;56.40;;;;;;6292268;28;20482;-69
2022/10/01 12:19:29;;;;;;;2.33;1.02;;;21.20;56.30;;;;;;6292091;28;20024;-68
2022/10/01 12:22:34;;;;;;;3.80;0.90;;;21.20;56.30;;;;;;6292210;28;20046;-68
2022/10/01 12:25:58;;;;;;;1.67;0.90;;;21.20;56.40;;;;;;6291569;28;20032;-68
2022/10/01 12:29:18;;;;;;;2.10;1.17;;;21.20;56.40;;;;;;6290097;28;20040;-68
2022/10/01 12:32:43;;;;;;;10.20;2.58;;;21.20;56.30;;;;;;6291256;28;20024;-69
2022/10/01 12:35:53;;;;;;;4.47;2.20;;;21.20;56.10;;;;;;6291900;28;20469;-70
2022/10/01 12:39:25;;;;;;;6.20;2.22;;;21.30;56.20;;;;;;6268103;28;20116;-69
2022/10/01 12:42:30;;;;;;;9.23;3.33;;;21.40;56.00;;;;;;6285501;28;20048;-68
2022/10/01 12:46:15;;;;;;;10.20;3.43;;;21.30;56.20;;;;;;6282943;28;20078;-68
2022/10/01 12:49:24;;;;;;;6.18;2.65;;;21.30;56.00;;;;;;6288134;28;20048;-69
2022/10/01 12:52:44;;;;;;;9.77;3.28;;;21.30;56.20;;;;;;6289753;28;20032;-70
2022/10/01 12:56:08;;;;;;;11.35;4.30;;;21.30;56.20;;;;;;6291398;28;20012;-68
2022/10/01 12:59:37;;;;;;;8.68;3.05;;;21.30;56.10;;;;;;6291453;28;20023;-68
2022/10/01 13:02:54;;;;;;;13.93;4.57;;;21.30;56.20;;;;;;6289623;28;20044;-68
2022/10/01 13:06:13;;;;;;;9.95;3.50;;;21.30;56.90;;;;;;6291423;28;20445;-67
2022/10/01 13:09:40;;;;;;;14.02;4.72;;;21.30;56.30;;;;;;6291009;28;20032;-67
2022/10/01 13:13:09;;;;;;;10.63;4.07;;;21.30;56.30;;;;;;6289368;28;20060;-67
2022/10/01 13:16:35;;;;;;;14.25;4.47;;;21.20;56.20;;;;;;6289629;28;20070;-67
2022/10/01 13:20:00;;;;;;;10.63;3.95;;;21.20;56.30;;;;;;6290859;28;20501;-67
2022/10/01 13:23:17;;;;;;;12.35;4.68;;;21.20;56.30;;;;;;6290724;28;20021;-67
2022/10/01 13:26:57;;;;;;;11.88;4.82;;;21.20;56.30;;;;;;6311094;28;20042;-67
2022/10/01 13:30:17;;;;;;;9.38;3.75;;;21.20;56.30;;;;;;6304132;28;20238;-67
2022/10/01 13:33:25;;;;;;;11.70;4.13;;;21.20;56.30;;;;;;6285539;28;20590;-67
2022/10/01 13:36:31;;;;;;;10.70;4.20;;;21.20;56.30;;;;;;6290504;28;20493;-67
2022/10/01 13:39:33;;;;;;;13.07;4.80;;;21.20;56.30;;;;;;6290998;28;20540;-67
2022/10/01 13:42:42;;;;;;;11.20;4.50;;;21.20;56.40;;;;;;6289563;28;20021;-67
2022/10/01 13:45:45;;;;;;;10.10;4.15;;;21.20;56.40;;;;;;6279185;28;20060;-68
2022/10/01 13:48:48;;;;;;;10.68;4.22;;;21.20;56.40;;;;;;6290075;28;20249;-68
2022/10/01 13:51:50;;;;;;;10.25;4.15;;;21.20;56.50;;;;;;6289937;28;20126;-68
2022/10/01 13:54:54;;;;;;;9.93;4.22;;;21.20;56.40;;;;;;6291378;28;20655;-68
2022/10/01 13:58:19;;;;;;;9.90;4.20;;;21.20;56.50;;;;;;6291019;28;20024;-71
2022/10/01 14:01:20;;;;;;;13.52;4.13;;;21.20;56.40;;;;;;6290921;28;20111;-68
2022/10/01 14:04:38;;;;;;;8.45;3.70;;;21.20;56.40;;;;;;6290049;28;20020;-68
2022/10/01 14:07:39;;;;;;;8.32;3.55;;;21.20;56.40;;;;;;6290086;28;20063;-69
2022/10/01 14:18:00;;;;;;;10.32;3.58;;;21.20;56.40;;;;;;6290731;28;20025;-70
2022/10/01 14:21:01;;;;;;;10.90;4.07;;;21.20;56.30;;;;;;6292199;28;20028;-71
2022/10/01 14:24:13;;;;;;;7.65;3.33;;;21.20;56.50;;;;;;6286379;28;20274;-69
2022/10/01 14:27:48;;;;;;;9.80;3.88;;;21.20;56.40;;;;;;6291633;28;20466;-69
2022/10/01 14:31:10;;;;;;;8.52;3.45;;;21.20;56.80;;;;;;6285128;28;20025;-71
2022/10/01 14:34:52;;;;;;;8.60;3.53;;;21.30;56.60;;;;;;6294861;28;20029;-70
2022/10/01 14:37:59;;;;;;;7.50;3.17;;;21.30;56.60;;;;;;6294253;28;20424;-70
2022/10/01 14:41:00;;;;;;;10.63;3.05;;;21.30;56.60;;;;;;6295042;28;20757;-72
2022/10/01 14:44:01;;;;;;;6.93;3.22;;;21.30;56.70;;;;;;6293735;28;20021;-71
2022/10/01 14:47:11;;;;;;;9.15;3.50;;;21.40;56.60;;;;;;6295271;28;20021;-71
2022/10/01 14:50:18;;;;;;;7.18;3.72;;;21.40;56.60;;;;;;6290257;28;20108;-70
2022/10/01 14:53:23;;;;;;;6.95;3.08;;;21.40;56.60;;;;;;6293159;28;20040;-70
2022/10/01 14:56:24;;;;;;;8.85;3.28;;;21.40;56.50;;;;;;6293850;28;20036;-70
2022/10/01 14:59:38;;;;;;;5.97;2.80;;;21.40;56.60;;;;;;6294351;28;20077;-70
2022/10/01 15:02:50;;;;;;;7.18;3.03;;;21.40;57.40;;;;;;6295024;28;20078;-71
2022/10/01 15:06:02;;;;;;;6.75;3.35;;;21.30;56.60;;;;;;6319102;28;20028;-70
2022/10/01 15:09:13;;;;;;;8.02;3.05;;;21.30;57.40;;;;;;6315119;28;20054;-70
2022/10/01 15:12:17;;;;;;;8.38;3.00;;;21.30;56.70;;;;;;6319257;28;20392;-71
2022/10/01 15:15:32;;;;;;;8.43;3.33;;;21.30;56.80;;;;;;6295617;28;20024;-71
2022/10/01 15:18:35;;;;;;;5.80;2.60;;;21.30;56.80;;;;;;6294204;28;20550;-69
2022/10/01 15:21:40;;;;;;;6.63;2.95;;;21.30;56.70;;;;;;6293429;28;20017;-69
2022/10/01 15:24:43;;;;;;;8.27;2.78;;;21.30;56.70;;;;;;6294009;28;20858;-69
2022/10/01 15:27:44;;;;;;;6.30;2.50;;;21.20;56.70;;;;;;6295083;28;20765;-69
2022/10/01 15:30:45;;;;;;;6.63;3.17;;;21.30;56.70;;;;;;6293072;28;20489;-70
2022/10/01 15:33:46;;;;;;;8.70;2.80;;;21.30;56.80;;;;;;6291674;28;20024;-68
2022/10/01 15:36:48;;;;;;;6.13;2.58;;;21.30;56.80;;;;;;6293629;28;20025;-69
2022/10/01 15:39:52;;;;;;;6.18;2.75;;;21.20;56.70;;;;;;6294264;28;20385;-69
2022/10/01 15:43:25;;;;;;;5.25;2.38;;;21.30;56.80;;;;;;6292809;28;20017;-69
2022/10/01 15:46:29;;;;;;;5.13;2.50;;;21.20;56.90;;;;;;6269197;28;20414;-68
2022/10/01 15:49:30;;;;;;;5.40;2.50;;;21.30;56.80;;;;;;6278526;28;20040;-69
2022/10/01 15:52:53;;;;;;;5.20;2.08;;;21.30;57.00;;;;;;6309515;28;20025;-67
2022/10/01 15:55:56;;;;;;;6.47;2.58;;;21.20;56.80;;;;;;6291302;28;20474;-67
2022/10/01 15:59:08;;;;;;;4.65;2.42;;;21.20;56.80;;;;;;6293229;28;20021;-67
2022/10/01 16:02:19;;;;;;;5.82;2.42;;;21.20;56.80;;;;;;6265994;28;20393;-68
2022/10/01 16:05:27;;;;;;;6.65;2.75;;;21.20;56.80;;;;;;6282201;28;20025;-71
2022/10/01 16:08:35;;;;;;;4.90;2.00;;;21.20;56.80;;;;;;6292752;28;20024;-68
2022/10/01 16:12:00;;;;;;;6.82;2.53;;;21.20;56.80;;;;;;6311298;28;20020;-68
2022/10/01 16:15:03;;;;;;;3.70;1.98;;;21.20;56.80;;;;;;6300635;28;20024;-69
2022/10/01 16:18:21;;;;;;;7.55;2.45;;;21.30;56.90;;;;;;6292791;28;20043;-69
2022/10/01 16:21:22;;;;;;;4.55;2.03;;;21.20;56.80;;;;;;6290695;28;20343;-68
2022/10/01 16:24:27;;;;;;;5.18;2.00;;;21.20;56.70;;;;;;6306180;28;20016;-69
2022/10/01 16:27:42;;;;;;;3.22;2.00;;;21.30;56.80;;;;;;6284008;28;20017;-69
2022/10/01 16:30:50;;;;;;;4.32;2.05;;;21.30;56.80;;;;;;6286010;28;20369;-69